Time;durP1;ratioP1;P1;durP2;ratioP2;P2;SDS_P1;SDS_P2;PMS_P1;PMS_P2;Temp;Humidity;BMP_temperature;BMP_pressure;BME280_temperature;BME280_humidity;BME280_pressure;Samples;Min_cycle;Max_cycle;Signal;HPM_P1;HPM_P2
2023/11/06 00:02:19;;;;;;;0.38;0.38;;;8.90;99.90;;;;;;4968290;28;20047;-79
2023/11/06 00:04:46;;;;;;;0.40;0.40;;;8.80;99.90;;;;;;4997458;28;20047;-78
2023/11/06 00:07:12;;;;;;;0.30;0.30;;;8.80;99.90;;;;;;4962326;28;20565;-80
2023/11/06 00:09:37;;;;;;;0.55;0.55;;;8.70;99.90;;;;;;4973538;28;20047;-81
2023/11/06 00:12:05;;;;;;;0.40;0.40;;;8.70;99.90;;;;;;4972659;28;20050;-80
2023/11/06 00:14:30;;;;;;;0.50;0.50;;;8.60;99.90;;;;;;4978424;28;20543;-81
2023/11/06 00:16:56;;;;;;;0.40;0.40;;;8.50;99.90;;;;;;4959499;28;20089;-81
2023/11/06 00:19:22;;;;;;;0.30;0.30;;;8.60;99.90;;;;;;4951600;28;20057;-82
2023/11/06 00:21:48;;;;;;;;;;;8.40;99.90;;;;;;4956363;28;20058;-80
2023/11/06 00:24:14;;;;;;;0.80;0.50;;;8.40;99.90;;;;;;4980786;28;19926;-81
2023/11/06 00:26:40;;;;;;;0.50;0.50;;;8.30;99.90;;;;;;4973834;28;20039;-79
2023/11/06 00:29:07;;;;;;;2.70;0.93;;;8.30;99.90;;;;;;4969695;28;20695;-81
2023/11/06 00:31:39;;;;;;;0.40;0.40;;;8.30;99.90;;;;;;4962111;28;20097;-81
2023/11/06 00:34:06;;;;;;;0.70;0.70;;;8.20;99.90;;;;;;4976801;28;20050;-80
2023/11/06 00:36:31;;;;;;;0.32;0.32;;;8.30;99.90;;;;;;5053477;28;20079;-82
2023/11/06 00:38:57;;;;;;;0.45;0.45;;;8.30;99.90;;;;;;5037016;28;20449;-82
2023/11/06 00:41:23;;;;;;;;;;;8.30;99.90;;;;;;4968054;28;20046;-81
2023/11/06 00:43:49;;;;;;;0.50;0.50;;;8.20;99.90;;;;;;4968259;28;20395;-81
2023/11/06 00:46:15;;;;;;;0.40;0.40;;;8.20;99.90;;;;;;4972951;28;20047;-82
2023/11/06 00:48:40;;;;;;;0.43;0.43;;;8.30;99.90;;;;;;5036648;28;20063;-82
2023/11/06 00:51:06;;;;;;;0.40;0.40;;;8.30;99.90;;;;;;4982896;28;20051;-83
2023/11/06 00:53:32;;;;;;;0.50;0.50;;;8.30;99.90;;;;;;4984325;28;20407;-83
2023/11/06 00:55:59;;;;;;;0.50;0.50;;;8.40;99.90;;;;;;5036712;28;20571;-84
2023/11/06 00:58:25;;;;;;;0.30;0.30;;;8.40;99.90;;;;;;4979618;28;20146;-82
2023/11/06 01:00:51;;;;;;;0.47;0.47;;;8.50;99.90;;;;;;4962102;28;20047;-81
2023/11/06 01:03:17;;;;;;;;;;;8.40;99.90;;;;;;4960935;28;20047;-81
2023/11/06 01:05:43;;;;;;;0.55;0.55;;;8.40;99.90;;;;;;4988177;28;19920;-83
2023/11/06 01:08:09;;;;;;;;;;;8.30;99.90;;;;;;4975465;28;20090;-82
2023/11/06 01:10:36;;;;;;;0.47;0.47;;;8.30;99.90;;;;;;4995608;28;19922;-82
2023/11/06 01:13:03;;;;;;;0.50;0.50;;;8.40;99.90;;;;;;4993926;28;20063;-82
2023/11/06 01:15:31;;;;;;;0.50;0.50;;;8.30;99.90;;;;;;4977334;28;20078;-81
2023/11/06 01:17:57;;;;;;;0.73;0.73;;;8.40;99.90;;;;;;4964452;28;20476;-80
2023/11/06 01:20:24;;;;;;;0.40;0.40;;;8.40;99.90;;;;;;4966344;28;20045;-82
2023/11/06 01:22:53;;;;;;;0.50;0.50;;;8.50;99.90;;;;;;4999814;28;20085;-82
2023/11/06 01:25:19;;;;;;;0.40;0.40;;;8.40;99.90;;;;;;5015678;28;20067;-79
2023/11/06 01:27:45;;;;;;;0.50;0.50;;;8.30;99.90;;;;;;4988811;28;20533;-82
2023/11/06 01:30:11;;;;;;;0.82;0.82;;;8.30;99.90;;;;;;4984997;28;20078;-81
2023/11/06 01:32:38;;;;;;;0.50;0.50;;;8.30;99.90;;;;;;4962681;28;20050;-83
2023/11/06 01:35:04;;;;;;;0.45;0.45;;;8.40;99.90;;;;;;4949301;28;20050;-82
2023/11/06 01:37:30;;;;;;;4.47;1.08;;;8.20;99.90;;;;;;4976530;28;20047;-82
2023/11/06 01:39:55;;;;;;;0.60;0.60;;;8.20;99.90;;;;;;4979660;28;20076;-79
2023/11/06 01:42:21;;;;;;;1.10;1.10;;;8.10;99.90;;;;;;4983473;28;20125;-79
2023/11/06 01:44:47;;;;;;;0.60;0.60;;;8.10;99.90;;;;;;5040528;28;20077;-81
2023/11/06 01:47:14;;;;;;;0.60;0.60;;;8.10;99.90;;;;;;4974293;28;20434;-80
2023/11/06 01:49:41;;;;;;;0.57;0.57;;;8.10;99.90;;;;;;4986560;28;20039;-82
2023/11/06 01:52:12;;;;;;;0.30;0.30;;;8.00;99.90;;;;;;4992002;28;20039;-81
2023/11/06 01:54:41;;;;;;;0.50;0.50;;;7.90;99.90;;;;;;4977515;28;20055;-81
2023/11/06 01:57:08;;;;;;;0.35;0.35;;;8.00;99.90;;;;;;4975303;28;20034;-80
2023/11/06 01:59:36;;;;;;;0.30;0.30;;;7.90;99.90;;;;;;4996530;28;20470;-83
2023/11/06 02:02:06;;;;;;;0.30;0.30;;;7.90;99.90;;;;;;4957286;28;20035;-82
2023/11/06 02:04:32;;;;;;;0.38;0.38;;;7.90;99.90;;;;;;4990483;28;20066;-81
2023/11/06 02:06:58;;;;;;;;;;;7.90;99.90;;;;;;4997226;28;20072;-81
2023/11/06 02:09:27;;;;;;;0.40;0.40;;;7.80;99.90;;;;;;4974854;28;20428;-80
2023/11/06 02:11:52;;;;;;;0.35;0.35;;;7.80;99.90;;;;;;4981715;28;20031;-80
2023/11/06 02:14:18;;;;;;;0.57;0.57;;;7.90;99.90;;;;;;4971661;28;20099;-81
2023/11/06 02:16:44;;;;;;;0.50;0.50;;;8.00;99.90;;;;;;4971689;28;20058;-81
2023/11/06 02:19:10;;;;;;;1.75;0.90;;;7.90;99.90;;;;;;4957925;28;20043;-80
2023/11/06 02:21:35;;;;;;;0.47;0.47;;;7.90;99.90;;;;;;4963351;28;20057;-82
2023/11/06 02:24:05;;;;;;;0.40;0.40;;;8.30;99.90;;;;;;4990901;28;20057;-83
2023/11/06 02:26:31;;;;;;;0.47;0.47;;;8.00;99.90;;;;;;5043739;28;20043;-82
2023/11/06 02:28:56;;;;;;;0.40;0.40;;;8.00;99.90;;;;;;4986076;28;20503;-84
2023/11/06 02:31:23;;;;;;;0.88;0.88;;;8.00;99.90;;;;;;5060360;28;20039;-81
2023/11/06 02:33:48;;;;;;;;;;;8.00;99.90;;;;;;4946884;28;20039;-81
2023/11/06 02:36:14;;;;;;;0.40;0.40;;;8.00;99.90;;;;;;5047095;28;20009;-81
2023/11/06 02:38:40;;;;;;;0.77;0.77;;;8.00;99.90;;;;;;4988484;28;20074;-84
2023/11/06 02:41:06;;;;;;;0.50;0.50;;;8.00;99.90;;;;;;4981859;28;20044;-81
2023/11/06 02:43:32;;;;;;;0.40;0.40;;;8.00;99.90;;;;;;4972417;28;20065;-83
2023/11/06 02:45:58;;;;;;;0.50;0.50;;;8.10;99.90;;;;;;4956555;28;20510;-81
2023/11/06 02:48:24;;;;;;;0.80;0.80;;;8.00;99.90;;;;;;4951309;28;20043;-83
2023/11/06 02:50:49;;;;;;;0.50;0.50;;;8.10;99.90;;;;;;4975092;28;20039;-82
2023/11/06 02:53:15;;;;;;;0.35;0.35;;;8.10;99.90;;;;;;4993065;28;20049;-81
2023/11/06 02:55:43;;;;;;;0.50;0.50;;;8.10;99.90;;;;;;4982501;28;20056;-83
2023/11/06 02:58:13;;;;;;;0.52;0.52;;;8.10;99.90;;;;;;4983204;28;20437;-80
2023/11/06 03:00:39;;;;;;;0.50;0.50;;;8.10;99.90;;;;;;4968913;28;20046;-82
2023/11/06 03:03:06;;;;;;;;;;;8.10;99.90;;;;;;4976730;28;20431;-83
2023/11/06 03:05:32;;;;;;;0.55;0.55;;;8.00;99.90;;;;;;5044330;28;19926;-85
2023/11/06 03:08:00;;;;;;;;;;;8.00;99.90;;;;;;5069709;28;20451;-81
2023/11/06 03:10:26;;;;;;;0.55;0.55;;;8.00;99.90;;;;;;5040052;28;19945;-82
2023/11/06 03:12:51;;;;;;;0.50;0.50;;;8.00;99.90;;;;;;4969015;28;20076;-82
2023/11/06 03:15:17;;;;;;;0.52;0.52;;;7.90;99.90;;;;;;4978415;28;20046;-79
2023/11/06 03:17:43;;;;;;;0.60;0.60;;;8.00;99.90;;;;;;4976398;28;20047;-82
2023/11/06 03:20:12;;;;;;;0.50;0.50;;;8.00;99.90;;;;;;4960615;28;20124;-82
2023/11/06 03:22:39;;;;;;;0.60;0.60;;;8.00;99.90;;;;;;4956663;28;20038;-85
2023/11/06 03:25:09;;;;;;;0.50;0.50;;;8.00;99.90;;;;;;4982350;28;20503;-84
2023/11/06 03:27:35;;;;;;;0.50;0.50;;;8.00;99.90;;;;;;4990842;28;20099;-82
2023/11/06 03:30:00;;;;;;;0.57;0.57;;;8.00;99.90;;;;;;4985559;28;20177;-83
2023/11/06 03:32:45;;;;;;;0.45;0.45;;;8.30;99.90;;;;;;4974417;28;20125;-80
2023/11/06 03:35:10;;;;;;;1.15;1.13;;;8.10;99.90;;;;;;4969572;28;20054;-81
2023/11/06 03:37:36;;;;;;;0.75;0.75;;;8.10;99.90;;;;;;4954879;28;20050;-82
2023/11/06 03:40:02;;;;;;;1.55;0.73;;;8.00;99.90;;;;;;4960981;28;20078;-83
2023/11/06 03:42:28;;;;;;;0.50;0.50;;;8.10;99.90;;;;;;4969697;28;20058;-84
2023/11/06 03:44:54;;;;;;;0.63;0.63;;;8.20;99.90;;;;;;4960471;28;20046;-83
2023/11/06 03:47:20;;;;;;;0.73;0.73;;;8.20;99.90;;;;;;5002223;28;20043;-82
2023/11/06 03:49:45;;;;;;;0.60;0.60;;;8.30;99.90;;;;;;4985058;28;20036;-83
2023/11/06 03:52:11;;;;;;;0.55;0.55;;;8.30;99.90;;;;;;4986604;28;20080;-84
2023/11/06 03:54:42;;;;;;;0.60;0.60;;;8.30;99.90;;;;;;5022867;28;20492;-81
2023/11/06 03:57:07;;;;;;;0.45;0.45;;;8.40;99.90;;;;;;4990687;28;20049;-81
2023/11/06 03:59:33;;;;;;;0.50;0.50;;;8.40;99.90;;;;;;5002848;28;20060;-84
2023/11/06 04:01:59;;;;;;;0.40;0.40;;;8.40;99.90;;;;;;5006247;28;20055;-83
2023/11/06 04:04:25;;;;;;;0.52;0.52;;;8.50;99.90;;;;;;5053694;28;20062;-84
2023/11/06 04:06:51;;;;;;;;;;;8.50;99.90;;;;;;5014808;28;20050;-82
2023/11/06 04:09:17;;;;;;;0.57;0.57;;;8.50;99.90;;;;;;4992509;28;19918;-84
2023/11/06 04:11:43;;;;;;;0.50;0.50;;;8.50;99.90;;;;;;4969076;28;20192;-82
2023/11/06 04:14:10;;;;;;;0.50;0.50;;;8.40;99.90;;;;;;4984363;28;20190;-81
2023/11/06 04:16:36;;;;;;;0.40;0.40;;;8.30;99.90;;;;;;4977785;28;20043;-82
2023/11/06 04:19:02;;;;;;;0.50;0.50;;;8.30;99.90;;;;;;4993877;28;20097;-82
2023/11/06 04:21:29;;;;;;;0.45;0.45;;;8.30;99.90;;;;;;5020904;28;20074;-81
2023/11/06 04:23:55;;;;;;;0.43;0.43;;;8.30;99.90;;;;;;4955147;28;20051;-83
2023/11/06 04:26:20;;;;;;;1.15;0.93;;;8.50;99.90;;;;;;4944741;28;20047;-80
2023/11/06 04:28:47;;;;;;;0.40;0.40;;;8.60;99.90;;;;;;4975400;28;20146;-84
2023/11/06 04:31:13;;;;;;;0.98;0.98;;;8.60;99.90;;;;;;5017435;28;20039;-81
2023/11/06 04:33:39;;;;;;;1.17;0.90;;;8.70;99.90;;;;;;4984925;28;20529;-83
2023/11/06 04:36:08;;;;;;;2.65;1.95;;;8.70;99.90;;;;;;4985290;28;20416;-85
2023/11/06 04:38:37;;;;;;;0.75;0.75;;;8.80;99.90;;;;;;4998832;28;20049;-84
2023/11/06 04:41:04;;;;;;;0.35;0.35;;;8.80;99.90;;;;;;4973024;28;20047;-84
2023/11/06 04:43:30;;;;;;;0.38;0.38;;;8.80;99.90;;;;;;4976072;28;20054;-84
2023/11/06 04:45:56;;;;;;;0.40;0.40;;;8.70;99.90;;;;;;5052605;28;20041;-83
2023/11/06 04:48:21;;;;;;;0.47;0.47;;;8.70;99.90;;;;;;4962809;28;20056;-82
2023/11/06 04:50:47;;;;;;;0.40;0.40;;;8.70;99.90;;;;;;4970902;28;20097;-83
2023/11/06 04:53:13;;;;;;;0.70;0.70;;;8.60;99.90;;;;;;4978625;28;20045;-83
2023/11/06 04:55:39;;;;;;;0.40;0.40;;;8.60;99.90;;;;;;5019559;28;20376;-83
2023/11/06 04:58:05;;;;;;;0.40;0.40;;;8.60;99.90;;;;;;4981552;28;20039;-82
2023/11/06 05:00:32;;;;;;;0.40;0.40;;;8.70;99.90;;;;;;4956776;28;20508;-82
2023/11/06 05:02:58;;;;;;;0.98;0.98;;;8.60;99.90;;;;;;4941997;28;20046;-83
2023/11/06 05:05:24;;;;;;;0.43;0.43;;;8.70;99.90;;;;;;4937267;28;20047;-84
2023/11/06 05:07:50;;;;;;;0.40;0.40;;;8.60;99.90;;;;;;4969529;28;20516;-83
2023/11/06 05:10:16;;;;;;;0.55;0.55;;;8.50;99.90;;;;;;4966194;28;20081;-83
2023/11/06 05:12:41;;;;;;;0.65;0.65;;;8.40;99.90;;;;;;4955856;28;20078;-84
2023/11/06 05:15:13;;;;;;;0.50;0.50;;;8.50;99.90;;;;;;4956798;28;21370;-83
2023/11/06 05:17:38;;;;;;;0.65;0.60;;;8.50;99.90;;;;;;4980001;28;20035;-83
2023/11/06 05:20:09;;;;;;;1.10;0.63;;;8.50;99.90;;;;;;4983172;28;20033;-84
2023/11/06 05:22:37;;;;;;;0.50;0.50;;;8.50;99.90;;;;;;4977388;28;20058;-82
2023/11/06 05:25:03;;;;;;;0.40;0.40;;;8.60;99.90;;;;;;4996589;28;20047;-82
2023/11/06 05:27:29;;;;;;;1.05;1.05;;;8.60;99.90;;;;;;4953715;28;20039;-83
2023/11/06 05:29:54;;;;;;;0.50;0.50;;;8.70;99.90;;;;;;4972448;28;20180;-83
2023/11/06 05:32:20;;;;;;;0.45;0.45;;;8.70;99.90;;;;;;4966541;28;20051;-84
2023/11/06 05:34:47;;;;;;;1.98;0.82;;;8.70;99.90;;;;;;4955837;28;20047;-82
2023/11/06 05:37:13;;;;;;;2.70;2.60;;;8.70;99.90;;;;;;4988856;28;20056;-82
2023/11/06 05:39:39;;;;;;;0.80;0.80;;;8.70;99.90;;;;;;4975093;28;20057;-82
2023/11/06 05:42:07;;;;;;;0.60;0.60;;;8.70;99.90;;;;;;4989176;28;20057;-81
2023/11/06 05:44:33;;;;;;;3.28;3.08;;;8.70;99.90;;;;;;4985791;28;20047;-83
2023/11/06 05:47:00;;;;;;;0.50;0.50;;;8.80;99.90;;;;;;4970018;28;20400;-81
2023/11/06 05:49:26;;;;;;;0.50;0.50;;;8.70;99.90;;;;;;4974233;28;20112;-84
2023/11/06 05:51:52;;;;;;;0.30;0.30;;;8.80;99.90;;;;;;4964017;28;20039;-82
2023/11/06 05:54:19;;;;;;;0.95;0.80;;;8.70;99.90;;;;;;4956835;28;20058;-82
2023/11/06 05:56:45;;;;;;;0.38;0.38;;;8.70;99.90;;;;;;4984798;28;20056;-80
2023/11/06 05:59:11;;;;;;;0.50;0.50;;;8.70;99.90;;;;;;4983866;28;20522;-80
2023/11/06 06:01:37;;;;;;;0.50;0.50;;;8.60;99.90;;;;;;5020508;28;20076;-82
2023/11/06 06:04:03;;;;;;;0.57;0.57;;;8.50;99.90;;;;;;5002472;28;20045;-83
2023/11/06 06:06:28;;;;;;;0.50;0.50;;;8.50;99.90;;;;;;5013509;28;20060;-82
2023/11/06 06:08:54;;;;;;;0.65;0.65;;;8.60;99.90;;;;;;4978909;28;20121;-82
2023/11/06 06:11:20;;;;;;;0.70;0.70;;;8.60;99.90;;;;;;4953284;28;20134;-83
2023/11/06 06:13:46;;;;;;;0.50;0.50;;;8.50;99.90;;;;;;4958288;28;20080;-80
2023/11/06 06:16:12;;;;;;;0.38;0.38;;;8.60;99.90;;;;;;4983117;28;20049;-82
2023/11/06 06:18:38;;;;;;;0.55;0.55;;;8.60;99.90;;;;;;4956067;28;20082;-83
2023/11/06 06:21:06;;;;;;;0.50;0.50;;;8.60;99.90;;;;;;4961629;28;20066;-84
2023/11/06 06:23:32;;;;;;;1.15;1.15;;;8.60;99.90;;;;;;4969920;28;20061;-83
2023/11/06 06:25:58;;;;;;;0.30;0.30;;;8.60;99.90;;;;;;4986310;28;20044;-84
2023/11/06 06:28:25;;;;;;;1.40;1.38;;;8.50;99.90;;;;;;4961977;28;20070;-82
2023/11/06 06:30:50;;;;;;;0.40;0.40;;;8.60;99.90;;;;;;4966270;28;20138;-81
2023/11/06 06:33:17;;;;;;;1.15;1.15;;;8.60;99.90;;;;;;5039225;28;20134;-85
2023/11/06 06:35:44;;;;;;;0.60;0.60;;;8.60;99.90;;;;;;4958385;28;20038;-81
2023/11/06 06:38:09;;;;;;;;;;;8.60;99.90;;;;;;4964245;28;20038;-82
2023/11/06 06:40:36;;;;;;;2.80;1.45;;;8.80;99.90;;;;;;5000928;28;20291;-82
2023/11/06 06:43:08;;;;;;;0.50;0.50;;;8.80;99.90;;;;;;4976513;28;20425;-80
2023/11/06 06:45:35;;;;;;;1.23;1.23;;;8.70;99.90;;;;;;5001825;28;20062;-82
2023/11/06 06:48:03;;;;;;;0.50;0.50;;;8.70;99.90;;;;;;4985218;28;20117;-81
2023/11/06 06:50:35;;;;;;;1.15;1.15;;;8.70;99.90;;;;;;5002752;28;20116;-84
2023/11/06 06:53:01;;;;;;;0.50;0.50;;;8.70;99.90;;;;;;4984024;28;20062;-82
2023/11/06 06:55:27;;;;;;;0.47;0.47;;;8.70;99.90;;;;;;5003379;28;20067;-82
2023/11/06 06:57:56;;;;;;;0.75;0.75;;;8.70;99.90;;;;;;4980893;28;20383;-78
2023/11/06 07:00:22;;;;;;;0.57;0.57;;;8.60;99.90;;;;;;5005729;28;20063;-80
2023/11/06 07:02:49;;;;;;;1.33;0.93;;;8.60;99.90;;;;;;5040548;28;20046;-82
2023/11/06 07:05:16;;;;;;;5.47;2.38;;;8.60;99.90;;;;;;5015750;28;20047;-80
2023/11/06 07:07:53;;;;;;;0.73;0.73;;;9.70;99.90;;;;;;5046161;28;20509;-85
2023/11/06 07:10:18;;;;;;;0.40;0.40;;;8.50;99.90;;;;;;5030105;28;20414;-82
2023/11/06 07:12:44;;;;;;;0.40;0.40;;;8.50;99.90;;;;;;5022282;28;20044;-81
2023/11/06 07:15:10;;;;;;;0.40;0.40;;;8.50;99.90;;;;;;4984422;28;20047;-81
2023/11/06 07:17:43;;;;;;;0.40;0.40;;;8.50;99.90;;;;;;5041361;28;20039;-79
2023/11/06 07:20:15;;;;;;;0.45;0.45;;;8.50;99.90;;;;;;5031017;28;20041;-79
2023/11/06 07:22:41;;;;;;;0.60;0.60;;;8.50;99.90;;;;;;5015764;28;20039;-79
2023/11/06 07:25:08;;;;;;;0.50;0.50;;;8.40;99.90;;;;;;4988793;28;20035;-78
2023/11/06 07:27:34;;;;;;;0.20;0.20;;;9.20;99.90;;;;;;5047423;28;20044;-79
2023/11/06 07:29:59;;;;;;;0.40;0.40;;;8.50;99.90;;;;;;5002048;28;20385;-82
2023/11/06 07:32:25;;;;;;;0.40;0.40;;;8.30;99.90;;;;;;5015087;28;20038;-82
2023/11/06 07:34:51;;;;;;;0.40;0.40;;;8.40;99.90;;;;;;5023990;28;20043;-83
2023/11/06 07:37:17;;;;;;;0.40;0.40;;;8.40;99.90;;;;;;4974586;28;20095;-82
2023/11/06 07:39:43;;;;;;;0.40;0.40;;;8.40;99.90;;;;;;5073131;28;20053;-81
2023/11/06 07:42:11;;;;;;;0.90;0.82;;;8.40;99.90;;;;;;5005688;28;20043;-81
2023/11/06 07:44:41;;;;;;;0.60;0.60;;;8.40;99.90;;;;;;4985077;28;20507;-79
2023/11/06 07:47:07;;;;;;;0.65;0.65;;;8.50;99.90;;;;;;5051056;28;20035;-83
2023/11/06 07:49:36;;;;;;;0.75;0.75;;;8.50;99.90;;;;;;5024190;28;20039;-82
2023/11/06 07:52:07;;;;;;;;;;;8.50;99.90;;;;;;5020574;28;20111;-81
2023/11/06 07:54:43;;;;;;;0.40;0.40;;;8.50;99.90;;;;;;5012203;28;19965;-80
2023/11/06 07:57:09;;;;;;;0.60;0.60;;;8.60;99.90;;;;;;5048488;28;20131;-80
2023/11/06 07:59:42;;;;;;;0.30;0.30;;;10.10;99.90;;;;;;5009670;28;20083;-82
2023/11/06 08:02:10;;;;;;;0.40;0.40;;;8.60;99.90;;;;;;4988739;28;20550;-82
2023/11/06 08:04:43;;;;;;;0.50;0.50;;;8.70;99.90;;;;;;5043394;28;20068;-83
2023/11/06 08:07:13;;;;;;;0.40;0.40;;;8.70;99.90;;;;;;5030447;28;20031;-81
2023/11/06 08:09:40;;;;;;;0.40;0.40;;;8.70;99.90;;;;;;5023694;28;20044;-83
2023/11/06 08:12:12;;;;;;;0.50;0.50;;;9.80;99.90;;;;;;4958884;28;20392;-83
2023/11/06 08:14:37;;;;;;;3.05;1.08;;;8.80;99.90;;;;;;5019415;28;20043;-82
2023/11/06 08:17:04;;;;;;;0.50;0.50;;;8.70;99.90;;;;;;5010147;28;20034;-84
2023/11/06 08:19:38;;;;;;;0.40;0.40;;;8.70;99.90;;;;;;5029613;28;20068;-81
2023/11/06 08:22:04;;;;;;;3.55;0.60;;;8.80;99.90;;;;;;5048175;28;20463;-81
2023/11/06 08:24:30;;;;;;;0.52;0.52;;;8.70;99.90;;;;;;4993031;28;20508;-81
2023/11/06 08:26:56;;;;;;;0.63;0.63;;;8.70;99.90;;;;;;4990329;28;20124;-84
2023/11/06 08:29:22;;;;;;;0.32;0.32;;;8.60;99.90;;;;;;4991109;28;20043;-81
2023/11/06 08:31:48;;;;;;;0.30;0.30;;;8.60;99.90;;;;;;5017539;28;20046;-82
2023/11/06 08:34:14;;;;;;;;;;;8.60;99.90;;;;;;5000679;28;20058;-84
2023/11/06 08:36:44;;;;;;;0.55;0.55;;;8.50;99.90;;;;;;4977565;28;19923;-83
2023/11/06 08:39:10;;;;;;;0.28;0.28;;;8.50;99.90;;;;;;5042198;28;20061;-81
2023/11/06 08:41:37;;;;;;;0.43;0.43;;;8.50;99.90;;;;;;4986021;28;20096;-85
2023/11/06 08:44:04;;;;;;;0.65;0.65;;;8.50;99.90;;;;;;5037756;28;20047;-83
2023/11/06 08:46:33;;;;;;;0.40;0.40;;;8.30;99.90;;;;;;4977461;28;20041;-82
2023/11/06 08:49:03;;;;;;;0.40;0.40;;;8.40;99.90;;;;;;5024613;28;20065;-83
2023/11/06 08:51:31;;;;;;;0.40;0.40;;;8.40;99.90;;;;;;5018311;28;20502;-82
2023/11/06 08:53:58;;;;;;;0.40;0.40;;;9.00;99.90;;;;;;5037791;28;20035;-85
2023/11/06 08:56:29;;;;;;;0.40;0.40;;;8.50;99.90;;;;;;4955596;28;20049;-85
2023/11/06 08:58:55;;;;;;;0.30;0.30;;;8.40;99.90;;;;;;4978712;28;20042;-83
2023/11/06 09:01:21;;;;;;;0.40;0.40;;;8.40;99.90;;;;;;5018321;28;20055;-86
2023/11/06 09:03:53;;;;;;;0.30;0.30;;;8.40;99.90;;;;;;5006583;28;20053;-86
2023/11/06 09:06:24;;;;;;;0.75;0.75;;;8.50;99.90;;;;;;5019825;28;20049;-85
2023/11/06 09:08:55;;;;;;;0.60;0.60;;;8.50;99.90;;;;;;4961890;28;20148;-84
2023/11/06 09:11:22;;;;;;;0.45;0.45;;;8.50;99.90;;;;;;4968200;28;20039;-85
2023/11/06 09:13:49;;;;;;;0.30;0.30;;;8.50;99.90;;;;;;4969490;28;20102;-84
2023/11/06 09:16:18;;;;;;;0.40;0.40;;;8.60;99.90;;;;;;4999862;28;20066;-84
2023/11/06 09:18:45;;;;;;;0.40;0.40;;;8.50;99.90;;;;;;4962854;28;20081;-85
2023/11/06 09:21:13;;;;;;;0.50;0.50;;;8.50;99.90;;;;;;4987532;28;20134;-86
2023/11/06 09:23:41;;;;;;;0.43;0.43;;;8.40;99.90;;;;;;4991020;28;20137;-86
2023/11/06 09:26:10;;;;;;;0.50;0.50;;;8.40;99.90;;;;;;5042367;28;20035;-84
2023/11/06 09:28:36;;;;;;;0.30;0.30;;;8.40;99.90;;;;;;4990979;28;20047;-83
2023/11/06 09:31:04;;;;;;;;;;;8.40;99.90;;;;;;4967529;28;20476;-83
2023/11/06 09:33:30;;;;;;;;;;;8.40;99.90;;;;;;5047532;28;20462;-83
2023/11/06 09:35:56;;;;;;;0.40;0.40;;;8.40;99.90;;;;;;4974358;28;19945;-85
2023/11/06 09:38:21;;;;;;;0.40;0.40;;;8.40;99.90;;;;;;5046873;28;20031;-82
2023/11/06 09:40:50;;;;;;;0.30;0.30;;;8.40;99.90;;;;;;4981597;28;20047;-84
2023/11/06 09:43:16;;;;;;;0.40;0.40;;;8.40;99.90;;;;;;5031775;28;20050;-86
2023/11/06 09:45:42;;;;;;;0.40;0.40;;;8.50;99.90;;;;;;4980386;28;20043;-85
2023/11/06 09:48:11;;;;;;;0.40;0.40;;;8.50;99.90;;;;;;4977575;28;20088;-81
2023/11/06 09:50:41;;;;;;;0.40;0.40;;;8.50;99.90;;;;;;4975761;28;20057;-84
2023/11/06 09:53:08;;;;;;;0.30;0.30;;;8.50;99.90;;;;;;4979724;28;20077;-84
2023/11/06 09:55:35;;;;;;;0.30;0.30;;;8.50;99.90;;;;;;4982659;28;20057;-85
2023/11/06 09:58:01;;;;;;;0.40;0.40;;;8.60;99.90;;;;;;4973654;28;20046;-84
2023/11/06 10:00:27;;;;;;;0.43;0.43;;;8.70;99.90;;;;;;5005289;28;20115;-84
2023/11/06 10:02:54;;;;;;;0.40;0.40;;;8.70;99.90;;;;;;4977371;28;20055;-84
2023/11/06 10:05:20;;;;;;;0.30;0.30;;;8.80;99.90;;;;;;4987459;28;20047;-84
2023/11/06 10:07:51;;;;;;;0.40;0.40;;;8.90;99.90;;;;;;4997635;28;20121;-84
2023/11/06 10:10:19;;;;;;;0.40;0.40;;;8.80;99.90;;;;;;4976565;28;20042;-84
2023/11/06 10:12:45;;;;;;;0.28;0.28;;;9.60;99.90;;;;;;4979478;28;20085;-84
2023/11/06 10:15:14;;;;;;;;;;;8.90;99.90;;;;;;4980085;28;20061;-88
2023/11/06 10:17:40;;;;;;;0.40;0.40;;;9.00;99.90;;;;;;4994573;28;19926;-85
2023/11/06 10:20:16;;;;;;;0.30;0.30;;;9.00;99.90;;;;;;4964742;28;20050;-85
2023/11/06 10:22:55;;;;;;;0.30;0.30;;;9.00;99.90;;;;;;4978208;28;20102;-85
2023/11/06 10:25:27;;;;;;;0.40;0.40;;;9.10;99.90;;;;;;4976208;28;20053;-84
2023/11/06 10:27:59;;;;;;;0.47;0.47;;;9.10;99.90;;;;;;4982851;28;20047;-85
2023/11/06 10:30:29;;;;;;;0.28;0.28;;;9.20;99.90;;;;;;4974931;28;20470;-84
2023/11/06 10:32:59;;;;;;;0.30;0.30;;;9.30;99.90;;;;;;4966306;28;20051;-82
2023/11/06 10:35:24;;;;;;;0.30;0.30;;;9.40;99.90;;;;;;5008703;28;20040;-84
2023/11/06 10:37:50;;;;;;;0.40;0.40;;;9.50;99.90;;;;;;4981078;28;20142;-84
2023/11/06 10:40:18;;;;;;;0.30;0.30;;;9.50;99.90;;;;;;4975813;28;20043;-84
2023/11/06 10:42:46;;;;;;;0.30;0.30;;;9.50;99.90;;;;;;4979316;28;20491;-82
2023/11/06 10:45:15;;;;;;;0.30;0.30;;;9.60;99.90;;;;;;4977769;28;20043;-85
2023/11/06 10:47:47;;;;;;;0.35;0.35;;;9.60;99.90;;;;;;5053624;28;20055;-83
2023/11/06 10:50:21;;;;;;;0.40;0.40;;;9.70;99.90;;;;;;4967034;28;20050;-84
2023/11/06 10:52:54;;;;;;;0.30;0.30;;;9.70;99.90;;;;;;4992081;28;20392;-87
2023/11/06 10:55:22;;;;;;;0.35;0.35;;;9.70;99.90;;;;;;4978283;28;20043;-82
2023/11/06 10:57:53;;;;;;;0.35;0.35;;;9.60;99.90;;;;;;4988941;28;20048;-83
2023/11/06 11:00:23;;;;;;;0.32;0.32;;;9.50;99.90;;;;;;5003583;28;20143;-82
2023/11/06 11:02:53;;;;;;;0.40;0.40;;;9.40;99.90;;;;;;5011507;28;20487;-84
2023/11/06 11:05:23;;;;;;;0.40;0.40;;;9.50;99.90;;;;;;4968588;28;20057;-82
2023/11/06 11:07:50;;;;;;;0.30;0.30;;;9.50;99.90;;;;;;4993991;28;20048;-83
2023/11/06 11:10:18;;;;;;;0.28;0.28;;;9.60;99.90;;;;;;4989566;28;20042;-83
2023/11/06 11:12:46;;;;;;;0.40;0.40;;;9.70;99.90;;;;;;4996967;28;20105;-83
2023/11/06 11:15:12;;;;;;;0.30;0.30;;;9.80;99.90;;;;;;4985924;28;20046;-80
2023/11/06 11:17:38;;;;;;;;;;;9.90;99.90;;;;;;4988524;28;20039;-81
2023/11/06 11:20:07;;;;;;;0.28;0.28;;;9.90;99.90;;;;;;4998746;28;19922;-79
2023/11/06 11:22:54;;;;;;;0.30;0.30;;;10.00;99.90;;;;;;5043337;28;20058;-80
2023/11/06 11:25:55;;;;;;;0.30;0.30;;;10.00;99.90;;;;;;5002855;28;20078;-79
2023/11/06 11:28:27;;;;;;;0.30;0.30;;;10.00;99.90;;;;;;4997474;28;20104;-81
2023/11/06 11:30:54;;;;;;;0.40;0.40;;;10.10;99.90;;;;;;5001453;28;20040;-85
2023/11/06 11:33:54;;;;;;;0.30;0.30;;;12.30;99.90;;;;;;4995347;28;20041;-85
2023/11/06 11:36:28;;;;;;;0.30;0.30;;;10.10;99.90;;;;;;5003490;28;20504;-81
2023/11/06 11:39:14;;;;;;;0.20;0.20;;;10.10;99.90;;;;;;4996645;28;20049;-81
2023/11/06 11:42:00;;;;;;;0.30;0.30;;;10.10;99.90;;;;;;4983884;28;20527;-81
2023/11/06 11:44:30;;;;;;;0.20;0.20;;;10.10;99.90;;;;;;4994258;28;20058;-84
2023/11/06 11:46:57;;;;;;;;;;;10.10;99.90;;;;;;4971083;28;20034;-83
2023/11/06 11:49:43;;;;;;;0.28;0.28;;;10.10;99.90;;;;;;5035578;28;19981;-81
2023/11/06 11:52:16;;;;;;;0.30;0.30;;;10.20;99.90;;;;;;4975167;28;20188;-82
2023/11/06 11:54:42;;;;;;;0.30;0.30;;;10.20;99.90;;;;;;4977668;28;20044;-80
2023/11/06 11:57:09;;;;;;;0.40;0.40;;;10.30;99.90;;;;;;5010887;28;20121;-82
2023/11/06 11:59:40;;;;;;;0.40;0.40;;;10.30;99.90;;;;;;4985688;28;20054;-84
2023/11/06 12:02:24;;;;;;;0.35;0.35;;;10.30;99.90;;;;;;5004718;28;20092;-85
2023/11/06 12:05:12;;;;;;;0.50;0.50;;;10.20;99.90;;;;;;4983270;28;20054;-81
2023/11/06 12:07:46;;;;;;;0.30;0.30;;;10.10;99.90;;;;;;4994074;28;20041;-83
2023/11/06 12:10:16;;;;;;;0.30;0.30;;;10.10;99.90;;;;;;5040440;28;20049;-83
2023/11/06 12:12:42;;;;;;;0.22;0.22;;;9.90;99.90;;;;;;4999674;28;20557;-82
2023/11/06 12:15:12;;;;;;;0.30;0.30;;;9.90;99.90;;;;;;5048692;28;20042;-82
2023/11/06 12:17:44;;;;;;;0.30;0.30;;;9.80;99.90;;;;;;4963338;28;20096;-80
2023/11/06 12:20:14;;;;;;;0.43;0.43;;;9.70;99.90;;;;;;4963280;28;20039;-81
2023/11/06 12:22:48;;;;;;;0.50;0.50;;;9.60;99.90;;;;;;4991078;28;20435;-82
2023/11/06 12:25:16;;;;;;;0.30;0.30;;;9.50;99.90;;;;;;4969347;28;20507;-81
2023/11/06 12:27:43;;;;;;;0.30;0.30;;;9.50;99.90;;;;;;4956202;28;20050;-82
2023/11/06 12:30:14;;;;;;;0.40;0.40;;;9.50;99.90;;;;;;4961552;28;20038;-83
2023/11/06 12:32:44;;;;;;;0.30;0.30;;;9.50;99.90;;;;;;4978718;28;20055;-82
2023/11/06 12:35:28;;;;;;;0.40;0.40;;;9.40;99.90;;;;;;4974414;28;20086;-84
2023/11/06 12:38:04;;;;;;;0.30;0.30;;;9.40;99.90;;;;;;5005302;28;20088;-81
2023/11/06 12:40:49;;;;;;;0.35;0.35;;;9.40;99.90;;;;;;4975559;28;20178;-83
2023/11/06 12:43:18;;;;;;;0.30;0.30;;;9.40;99.90;;;;;;4976741;28;20050;-84
2023/11/06 12:45:45;;;;;;;0.30;0.30;;;9.40;99.90;;;;;;4993368;28;20089;-82
2023/11/06 12:48:40;;;;;;;0.50;0.50;;;9.40;99.90;;;;;;5050193;28;20047;-85
2023/11/06 12:51:13;;;;;;;0.30;0.30;;;9.60;99.90;;;;;;4986003;28;20388;-83
2023/11/06 12:53:47;;;;;;;0.40;0.40;;;9.40;99.90;;;;;;5007052;28;20438;-83
2023/11/06 12:56:24;;;;;;;0.40;0.40;;;9.50;99.90;;;;;;5015076;28;20098;-85
2023/11/06 12:58:57;;;;;;;0.40;0.40;;;9.60;99.90;;;;;;5039268;28;20108;-85
2023/11/06 13:01:27;;;;;;;0.40;0.40;;;9.70;99.90;;;;;;5044396;28;20114;-82
2023/11/06 13:04:06;;;;;;;0.28;0.28;;;9.90;99.90;;;;;;5025628;28;20050;-82
2023/11/06 13:06:33;;;;;;;0.28;0.28;;;9.90;99.90;;;;;;5025316;28;20031;-85